Time;durP1;ratioP1;P1;durP2;ratioP2;P2;SDS_P1;SDS_P2;PMS_P1;PMS_P2;Temp;Humidity;BMP_temperature;BMP_pressure;BME280_temperature;BME280_humidity;BME280_pressure;Samples;Min_cycle;Max_cycle;Signal;HPM_P1;HPM_P2
2021/05/11 00:00:28;;;;;;;9.30;3.42;;;;;;;18.28;50.20;100229.59;5034818;28;20021;-62
2021/05/11 00:02:54;;;;;;;7.47;3.58;;;;;;;18.20;50.33;100223.38;5034627;28;20022;-62
2021/05/11 00:05:19;;;;;;;6.57;3.45;;;;;;;18.18;50.63;100234.41;5035151;28;20072;-62
2021/05/11 00:07:44;;;;;;;5.50;3.30;;;;;;;18.15;50.54;100224.75;5034529;28;20057;-62
2021/05/11 00:10:10;;;;;;;8.30;3.70;;;;;;;18.14;50.35;100225.22;5034879;28;20426;-62
2021/05/11 00:12:36;;;;;;;5.57;3.00;;;;;;;18.06;50.58;100233.16;5034689;28;20035;-62
2021/05/11 00:15:02;;;;;;;7.72;3.53;;;;;;;18.03;50.75;100234.09;5034667;28;20025;-62
2021/05/11 00:17:27;;;;;;;4.95;3.47;;;;;;;17.99;50.57;100227.72;5035246;28;20068;-62
2021/05/11 00:19:53;;;;;;;5.15;3.17;;;;;;;17.94;50.66;100228.31;5034525;28;20033;-62
2021/05/11 00:22:18;;;;;;;7.93;3.85;;;;;;;17.88;50.86;100230.16;5035088;28;20057;-62
2021/05/11 00:24:43;;;;;;;9.60;3.53;;;;;;;17.82;50.74;100241.31;5038388;28;20029;-61
2021/05/11 00:27:09;;;;;;;6.55;3.60;;;;;;;17.72;51.07;100228.22;5038164;28;20028;-62
2021/05/11 00:29:34;;;;;;;10.05;3.72;;;;;;;17.66;51.39;100240.59;5038281;28;20095;-62
2021/05/11 00:32:00;;;;;;;5.32;2.88;;;;;;;17.61;51.59;100227.75;5038164;28;20409;-62
2021/05/11 00:34:25;;;;;;;6.50;3.45;;;;;;;17.57;51.38;100233.56;5038299;28;20092;-62
2021/05/11 00:36:50;;;;;;;10.38;3.55;;;;;;;17.55;51.72;100224.69;5038126;28;20036;-62
2021/05/11 00:39:16;;;;;;;12.85;3.58;;;;;;;17.59;51.46;100219.69;5038183;28;20104;-61
2021/05/11 00:41:41;;;;;;;7.97;3.70;;;;;;;17.62;51.34;100217.97;5037692;28;20117;-62
2021/05/11 00:44:19;;;;;;;10.23;3.05;;;;;;;17.60;51.18;100221.28;5037823;28;20033;-61
2021/05/11 00:46:53;;;;;;;7.43;3.28;;;;;;;17.61;51.22;100227.75;5038062;28;20033;-62
2021/05/11 00:49:19;;;;;;;6.47;2.80;;;;;;;17.54;51.13;100217.41;5037781;28;20021;-62
2021/05/11 00:51:45;;;;;;;5.68;2.97;;;;;;;17.48;51.24;100219.22;5038119;28;20320;-61
2021/05/11 00:54:10;;;;;;;7.15;2.92;;;;;;;17.44;51.29;100218.53;5038196;28;20013;-61
2021/05/11 00:56:36;;;;;;;5.10;2.78;;;;;;;17.38;51.36;100216.72;5037441;28;20313;-62
2021/05/11 00:59:02;;;;;;;5.22;3.22;;;;;;;17.30;51.75;100219.00;5037663;28;20108;-62
2021/05/11 01:01:27;;;;;;;6.78;2.80;;;;;;;17.29;51.68;100215.38;5037719;28;20028;-62
2021/05/11 01:03:53;;;;;;;5.65;3.13;;;;;;;17.32;51.54;100222.19;5037456;28;20026;-62
2021/05/11 01:06:18;;;;;;;5.20;2.80;;;;;;;17.32;51.42;100219.34;5037607;28;20013;-62
2021/05/11 01:08:43;;;;;;;5.45;2.45;;;;;;;17.31;51.27;100226.25;5037393;28;20050;-63
2021/05/11 01:11:09;;;;;;;5.22;3.03;;;;;;;17.34;51.24;100228.19;5037259;28;20412;-62
2021/05/11 01:13:34;;;;;;;8.63;3.03;;;;;;;17.35;51.20;100218.44;5037587;28;20026;-62
2021/05/11 01:16:00;;;;;;;6.68;2.78;;;;;;;17.32;51.47;100222.19;5037427;28;20029;-62
2021/05/11 01:18:29;;;;;;;5.28;2.65;;;;;;;17.32;51.23;100222.19;5037248;28;20029;-62
2021/05/11 01:20:58;;;;;;;4.28;2.55;;;;;;;17.29;51.15;100212.53;5037132;28;20112;-62
2021/05/11 01:26:08;;;;;;;3.70;2.47;;;;;;;17.22;51.33;100217.59;5037239;28;20064;-61
2021/05/11 01:28:47;;;;;;;10.02;2.88;;;;;;;17.18;51.03;100214.88;5036866;28;20048;-62
2021/05/11 01:52:56;;;;;;;4.68;2.58;;;;;;;16.91;51.94;100194.63;5034466;28;20025;-62
2021/05/11 02:24:50;;;;;;;4.65;2.88;;;;;;;16.33;53.15;100197.47;5035940;28;20100;-62
2021/05/11 02:27:16;;;;;;;4.65;2.50;;;;;;;16.27;52.87;100191.53;5035657;28;20041;-62
2021/05/11 02:29:41;;;;;;;3.95;2.10;;;;;;;16.23;53.01;100190.84;5036086;28;20034;-62
2021/05/11 02:32:07;;;;;;;7.55;2.70;;;;;;;16.18;53.13;100190.59;5036003;28;20045;-62
2021/05/11 02:34:32;;;;;;;7.30;2.65;;;;;;;16.11;53.24;100185.88;5035829;28;20048;-62
2021/05/11 02:36:57;;;;;;;6.10;2.80;;;;;;;16.05;53.34;100194.13;5035857;28;20021;-62
2021/05/11 02:39:23;;;;;;;3.80;2.30;;;;;;;16.02;53.11;100189.38;5035664;28;20447;-62
2021/05/11 02:41:48;;;;;;;2.85;1.77;;;;;;;15.98;53.41;100185.03;5035524;28;20493;-62
2021/05/11 02:44:17;;;;;;;3.97;2.67;;;;;;;15.96;53.46;100179.81;5035769;28;20036;-62
2021/05/11 02:46:42;;;;;;;2.80;2.13;;;;;;;15.98;53.10;100177.31;5035418;28;20033;-62
2021/05/11 02:49:08;;;;;;;4.93;2.10;;;;;;;16.01;53.21;100172.81;5051073;28;20068;-62
2021/05/11 02:51:33;;;;;;;2.92;2.08;;;;;;;16.02;53.20;100171.56;5035612;28;20025;-62
2021/05/11 02:53:59;;;;;;;7.25;2.33;;;;;;;16.06;52.94;100172.25;5035644;28;20367;-62
2021/05/11 02:56:24;;;;;;;2.85;2.05;;;;;;;16.06;52.61;100173.06;5035587;28;20378;-62
2021/05/11 02:58:50;;;;;;;7.38;2.38;;;;;;;16.06;52.47;100177.94;5035386;28;20432;-62
2021/05/11 03:01:16;;;;;;;3.47;2.05;;;;;;;16.03;52.69;100179.63;5035404;28;20033;-62
2021/05/11 03:03:41;;;;;;;3.75;1.90;;;;;;;16.02;51.95;100178.03;5035511;28;20021;-62
2021/05/11 03:06:07;;;;;;;4.47;2.30;;;;;;;16.03;52.08;100178.81;5035516;28;20025;-62
2021/05/11 03:08:32;;;;;;;2.30;2.10;;;;;;;16.05;52.10;100179.16;5034999;28;20049;-62
2021/05/11 03:10:57;;;;;;;5.25;2.10;;;;;;;16.01;52.24;100176.44;5035445;28;20443;-62
2021/05/11 03:13:23;;;;;;;9.43;2.83;;;;;;;16.02;52.21;100188.56;5035205;28;20424;-62
2021/05/11 03:15:48;;;;;;;10.52;2.33;;;;;;;16.01;51.88;100193.44;5035492;28;20091;-62
2021/05/11 03:18:13;;;;;;;5.97;2.42;;;;;;;16.06;52.41;100186.44;5035303;28;20364;-62
2021/05/11 03:20:39;;;;;;;6.28;2.58;;;;;;;16.11;51.75;100177.38;5035521;28;20021;-62
2021/05/11 03:23:04;;;;;;;3.80;2.03;;;;;;;16.09;51.63;100179.88;5035180;28;20072;-62
2021/05/11 03:25:29;;;;;;;5.85;2.47;;;;;;;16.10;51.70;100192.81;5035366;28;20036;-62
2021/05/11 03:27:56;;;;;;;6.88;2.28;;;;;;;16.03;51.70;100185.28;5035501;28;20079;-62
2021/05/11 03:30:22;;;;;;;3.25;2.03;;;;;;;16.00;52.18;100186.19;5035063;28;20030;-62
2021/05/11 03:32:47;;;;;;;3.05;2.03;;;;;;;16.01;52.72;100184.94;5035300;28;20084;-61
2021/05/11 03:35:12;;;;;;;6.15;2.35;;;;;;;16.05;52.16;100177.13;5035255;28;20116;-62
2021/05/11 03:37:38;;;;;;;12.60;2.67;;;;;;;16.07;52.53;100182.34;5034784;28;20022;-62
2021/05/11 03:40:04;;;;;;;6.45;2.33;;;;;;;16.03;52.12;100173.94;5035285;28;20041;-62
2021/05/11 03:42:36;;;;;;;6.30;2.65;;;;;;;16.01;52.53;100176.44;5050602;28;20410;-62
2021/05/11 03:45:04;;;;;;;5.97;2.40;;;;;;;16.01;52.31;100181.31;5035459;28;20057;-62
2021/05/11 03:47:37;;;;;;;5.90;2.45;;;;;;;16.03;51.92;100184.50;5035418;28;20100;-62
2021/05/11 03:50:03;;;;;;;4.57;2.50;;;;;;;16.04;51.89;100186.09;5035349;28;20029;-62
2021/05/11 03:52:28;;;;;;;5.45;2.35;;;;;;;16.04;52.16;100174.75;5034603;28;20433;-62
2021/05/11 03:54:54;;;;;;;4.93;2.00;;;;;;;16.04;52.45;100171.91;5035150;28;20040;-61
2021/05/11 03:57:19;;;;;;;6.25;2.60;;;;;;;16.02;52.40;100178.03;5035184;28;20025;-62
2021/05/11 03:59:44;;;;;;;3.33;2.15;;;;;;;16.00;52.66;100186.19;5038358;28;20037;-61
2021/05/11 04:02:10;;;;;;;6.93;2.33;;;;;;;16.00;52.90;100174.84;5039085;28;20025;-62
2021/05/11 04:04:35;;;;;;;5.63;2.40;;;;;;;16.02;52.59;100163.84;5038519;28;20033;-62
2021/05/11 04:07:01;;;;;;;5.55;2.03;;;;;;;16.03;52.94;100173.16;5038476;28;20454;-62
2021/05/11 04:09:51;;;;;;;5.22;3.00;;;;;;;16.04;52.59;100171.91;5038293;28;20141;-62
2021/05/11 04:17:33;;;;;;;7.07;3.45;;;;;;;16.27;51.97;100174.53;5038725;28;20028;-62
2021/05/11 04:19:58;;;;;;;10.38;3.80;;;;;;;16.34;51.91;100177.16;5037959;28;20329;-62
2021/05/11 04:22:24;;;;;;;7.45;3.30;;;;;;;16.38;51.64;100175.00;5038472;28;20109;-61
2021/05/11 04:24:49;;;;;;;6.93;2.85;;;;;;;16.46;51.42;100178.47;5038311;28;20124;-62
2021/05/11 04:27:15;;;;;;;5.32;3.28;;;;;;;16.48;51.42;100173.13;5037867;28;20052;-62
2021/05/11 04:29:40;;;;;;;10.02;3.28;;;;;;;16.50;51.82;100169.84;5038185;28;20033;-63
2021/05/11 04:32:06;;;;;;;7.20;2.70;;;;;;;16.57;50.90;100172.47;5038216;28;20425;-62
2021/05/11 04:34:31;;;;;;;6.68;2.83;;;;;;;16.60;50.89;100172.38;5037817;28;20021;-62
2021/05/11 04:36:56;;;;;;;15.30;3.38;;;;;;;16.68;50.90;100178.66;5036552;28;20069;-62
2021/05/11 04:39:22;;;;;;;9.23;2.80;;;;;;;16.76;50.05;100171.53;5038162;28;20022;-61
2021/05/11 04:41:47;;;;;;;4.50;2.33;;;;;;;16.82;49.93;100177.47;5034346;28;20025;-62
2021/05/11 04:44:13;;;;;;;11.27;3.20;;;;;;;16.87;49.50;100179.72;5035370;28;20048;-62
2021/05/11 04:46:43;;;;;;;7.80;2.65;;;;;;;16.93;49.42;100183.59;5036738;28;20033;-62
2021/05/11 04:49:09;;;;;;;5.25;2.60;;;;;;;16.97;49.11;100178.59;5036953;28;20108;-62
2021/05/11 04:51:34;;;;;;;8.68;2.80;;;;;;;17.02;49.45;100185.78;5037266;28;20109;-62
2021/05/11 04:53:59;;;;;;;12.70;3.08;;;;;;;17.08;48.79;100184.78;5037283;28;20051;-62
2021/05/11 04:56:25;;;;;;;7.32;2.65;;;;;;;17.16;48.04;100191.03;5035939;28;20379;-62
2021/05/11 04:58:50;;;;;;;7.25;2.17;;;;;;;17.24;48.34;100192.38;5035184;28;20104;-62
2021/05/11 05:01:15;;;;;;;16.35;3.45;;;;;;;17.29;48.12;100189.78;5035866;28;20405;-62
2021/05/11 05:03:44;;;;;;;7.10;3.65;;;;;;;17.35;47.82;100192.06;5035739;28;20089;-62
2021/05/11 05:06:09;;;;;;;11.82;2.38;;;;;;;17.36;48.37;100191.59;5036891;28;20389;-62
2021/05/11 05:08:35;;;;;;;4.15;2.60;;;;;;;17.43;47.62;100188.53;5036953;28;20134;-62
2021/05/11 05:11:01;;;;;;;8.00;3.15;;;;;;;17.50;47.80;100193.19;5035955;28;20022;-62
2021/05/11 05:13:27;;;;;;;4.53;2.55;;;;;;;17.58;47.10;100194.56;5037196;28;20028;-63
2021/05/11 05:15:56;;;;;;;5.80;3.92;;;;;;;17.64;46.90;100197.63;5037472;28;20032;-62
2021/05/11 05:18:22;;;;;;;3.35;2.40;;;;;;;17.69;47.11;100188.53;5036930;28;20034;-62
2021/05/11 05:20:51;;;;;;;7.70;4.25;;;;;;;17.76;47.05;100194.00;5036896;28;20022;-62
2021/05/11 05:23:18;;;;;;;9.20;5.38;;;;;;;17.83;46.38;100210.84;5052747;28;20037;-61
2021/05/11 05:26:03;;;;;;;12.30;6.80;;;;;;;17.88;45.85;100196.81;5036943;28;20409;-62
2021/05/11 05:28:29;;;;;;;15.85;3.40;;;;;;;17.97;45.90;100204.66;5037304;28;20021;-62
2021/05/11 05:30:54;;;;;;;5.47;2.28;;;;;;;18.00;46.14;100195.19;5036994;28;20333;-62
2021/05/11 05:33:40;;;;;;;5.63;2.17;;;;;;;18.11;45.76;100198.50;5036719;28;20080;-62
2021/05/11 05:36:07;;;;;;;7.15;2.72;;;;;;;18.16;46.17;100191.41;5033704;28;20569;-63
2021/05/11 05:38:33;;;;;;;3.15;2.60;;;;;;;18.27;45.84;100188.97;5036803;28;20423;-62
2021/05/11 05:41:05;;;;;;;2.88;2.05;;;;;;;18.35;46.04;100195.19;5036922;28;20424;-62
2021/05/11 05:43:31;;;;;;;9.18;2.33;;;;;;;18.44;44.42;100198.16;5037021;28;20408;-62
2021/05/11 05:45:57;;;;;;;12.10;2.58;;;;;;;18.49;43.66;100189.00;5036810;28;20032;-62
2021/05/11 05:48:23;;;;;;;4.82;2.38;;;;;;;18.55;44.63;100190.00;5052232;28;20405;-62
2021/05/11 05:50:53;;;;;;;9.57;2.28;;;;;;;18.60;44.10;100194.31;5036590;28;20030;-62
2021/05/11 05:53:37;;;;;;;6.45;2.55;;;;;;;18.68;44.04;100184.28;5036550;28;20021;-62
2021/05/11 05:56:07;;;;;;;6.18;2.30;;;;;;;18.78;43.10;100191.63;5036628;28;20030;-62
2021/05/11 05:58:34;;;;;;;6.93;2.55;;;;;;;18.82;43.84;100180.91;5036433;28;20408;-62
2021/05/11 06:01:03;;;;;;;5.90;2.15;;;;;;;18.94;42.27;100191.44;5036204;28;20052;-62
2021/05/11 06:05:58;;;;;;;4.05;2.28;;;;;;;19.05;41.55;100202.41;5036525;28;20029;-61
2021/05/11 06:08:25;;;;;;;6.60;2.00;;;;;;;19.07;42.29;100194.19;5036257;28;20104;-62
2021/05/11 06:10:55;;;;;;;5.75;1.92;;;;;;;19.10;42.37;100187.53;5036418;28;20021;-62
2021/05/11 06:13:24;;;;;;;7.00;1.75;;;;;;;19.15;42.59;100187.72;5036106;28;20057;-61
2021/05/11 06:18:33;;;;;;;5.93;2.03;;;;;;;19.28;42.42;100176.25;5036032;28;20087;-62
2021/05/11 06:20:58;;;;;;;6.38;1.77;;;;;;;19.35;42.03;100175.97;5035543;28;20029;-61
2021/05/11 06:23:24;;;;;;;5.30;1.63;;;;;;;19.48;42.38;100180.78;5036083;28;20026;-61
2021/05/11 06:25:49;;;;;;;4.10;1.80;;;;;;;19.54;41.88;100170.38;5036174;28;20033;-61
2021/05/11 06:28:15;;;;;;;6.15;1.70;;;;;;;19.60;41.04;100174.97;5036040;28;20091;-62
2021/05/11 06:30:40;;;;;;;2.63;1.58;;;;;;;19.68;42.73;100172.63;5035939;28;20022;-61
2021/05/11 06:33:07;;;;;;;3.63;1.80;;;;;;;19.77;41.68;100177.56;5051692;28;20025;-62
2021/05/11 06:35:34;;;;;;;6.97;2.10;;;;;;;19.81;41.87;100170.44;5035660;28;20021;-62
2021/05/11 06:38:00;;;;;;;5.13;2.00;;;;;;;19.91;42.25;100163.50;5036210;28;20034;-62
2021/05/11 06:40:30;;;;;;;6.18;1.70;;;;;;;20.01;41.12;100165.09;5035704;28;20112;-62
2021/05/11 06:42:57;;;;;;;5.50;2.10;;;;;;;20.05;41.23;100165.75;5035709;28;20021;-62
2021/05/11 06:48:15;;;;;;;3.42;1.90;;;;;;;20.19;41.24;100167.16;5035975;28;20088;-62
2021/05/11 06:53:38;;;;;;;4.68;1.55;;;;;;;20.39;40.90;100161.00;5035964;28;20051;-62
2021/05/11 06:56:06;;;;;;;7.43;1.90;;;;;;;20.54;40.89;100161.16;5035613;28;20032;-62
2021/05/11 06:58:32;;;;;;;3.92;2.03;;;;;;;20.62;41.20;100160.38;5035666;28;20021;-62
2021/05/11 07:00:57;;;;;;;5.32;1.73;;;;;;;20.75;40.46;100163.06;5035164;28;20033;-63
2021/05/11 07:03:22;;;;;;;7.45;1.90;;;;;;;20.78;39.90;100158.44;5035479;28;20075;-62
2021/05/11 07:05:50;;;;;;;2.08;1.63;;;;;;;20.83;40.06;100160.69;5035501;28;20025;-61
2021/05/11 07:08:31;;;;;;;6.53;1.77;;;;;;;20.89;39.31;100164.47;5035041;28;20064;-62
2021/05/11 07:10:59;;;;;;;5.15;1.60;;;;;;;20.99;39.69;100163.16;5035542;28;20028;-62
2021/05/11 07:13:25;;;;;;;3.92;2.50;;;;;;;21.08;39.47;100154.56;5035272;28;20066;-62
2021/05/11 07:15:50;;;;;;;5.22;1.55;;;;;;;21.14;39.09;100158.38;5050984;28;20439;-62
2021/05/11 07:18:22;;;;;;;4.88;1.92;;;;;;;21.16;39.07;100152.97;5035282;28;20060;-62
2021/05/11 07:20:47;;;;;;;;;;;;;;;21.23;39.53;100148.97;5035527;28;20032;-63
2021/05/11 07:23:17;;;;;;;3.80;1.75;;;;;;;21.31;39.13;100140.84;5035537;28;19909;-62
2021/05/11 07:31:06;;;;;;;4.07;1.73;;;;;;;21.53;38.86;100149.97;5035602;28;20071;-62
2021/05/11 07:33:40;;;;;;;2.25;1.63;;;;;;;21.62;38.71;100146.25;5038975;28;20413;-63
2021/05/11 07:36:06;;;;;;;8.30;2.00;;;;;;;21.75;38.79;100139.03;5039436;28;20324;-62
2021/05/11 07:38:33;;;;;;;4.55;1.77;;;;;;;21.83;38.58;100140.25;5039300;28;20021;-62
2021/05/11 07:40:58;;;;;;;5.32;2.40;;;;;;;21.93;38.68;100138.13;5025826;28;20108;-62
2021/05/11 07:43:25;;;;;;;6.68;1.88;;;;;;;21.99;37.78;100144.75;5039096;28;20109;-62
2021/05/11 08:10:26;;;;;;;5.43;1.30;;;;;;;22.76;38.19;100141.13;5038774;28;20056;-62
2021/05/11 08:15:36;;;;;;;2.90;1.63;;;;;;;22.92;37.66;100126.31;5038559;28;20075;-62
2021/05/11 08:27:27;;;;;;;6.97;1.90;;;;;;;23.18;38.45;100134.31;5038365;28;20040;-61
2021/05/11 08:28:59;;;;;;;4.30;1.75;;;;;;;23.46;36.58;100132.66;5038078;28;20055;-62
2021/05/11 08:31:24;;;;;;;7.63;1.83;;;;;;;23.50;36.59;100136.09;5053914;28;20104;-63
2021/05/11 08:33:49;;;;;;;4.68;1.95;;;;;;;23.53;36.24;100131.44;5038099;28;20114;-62
2021/05/11 08:36:15;;;;;;;4.80;1.65;;;;;;;23.57;36.57;100126.34;5038456;28;20359;-62
2021/05/11 08:38:40;;;;;;;3.22;1.70;;;;;;;23.60;36.26;100137.63;5038037;28;20411;-62
2021/05/11 08:41:05;;;;;;;3.92;1.73;;;;;;;23.63;35.87;100135.81;5037860;28;20029;-62
2021/05/11 08:43:33;;;;;;;7.10;2.00;;;;;;;23.69;36.49;100126.00;5037492;28;20104;-61
2021/05/11 08:46:01;;;;;;;7.15;2.03;;;;;;;23.76;36.20;100132.59;5037692;28;20053;-62
2021/05/11 08:48:26;;;;;;;4.57;1.92;;;;;;;23.80;36.05;100130.31;5038165;28;20084;-62
2021/05/11 08:51:00;;;;;;;4.35;1.42;;;;;;;23.87;37.01;100129.91;5037753;28;20041;-62
2021/05/11 09:24:03;;;;;;;4.07;2.05;;;;;;;24.59;36.00;100112.75;5036915;28;20087;-63
2021/05/11 09:30:09;;;;;;;7.85;2.22;;;;;;;24.76;36.26;100113.72;5037216;28;20110;-63
2021/05/11 10:32:24;;;;;;;4.28;2.30;;;;;;;25.85;34.06;100086.84;5093132;28;20031;-61
2021/05/11 10:43:47;;;;;;;5.15;1.55;;;;;;;26.00;33.88;100075.09;5066288;28;20035;-61
2021/05/11 10:48:23;;;;;;;4.55;1.73;;;;;;;26.16;32.66;100071.50;5092680;28;20454;-61
2021/05/11 10:50:50;;;;;;;;;;;;;;;26.14;32.16;100066.28;5092783;28;20055;-61
2021/05/11 10:53:47;;;;;;;4.07;1.85;;;;;;;26.22;32.94;100048.47;5092377;28;20277;-61
2021/05/11 10:56:23;;;;;;;5.22;1.90;;;;;;;26.18;33.74;100057.38;5091213;28;20017;-61
2021/05/11 11:01:47;;;;;;;3.40;1.50;;;;;;;26.34;32.93;100053.00;5092380;28;20017;-61
2021/05/11 11:04:19;;;;;;;7.15;2.30;;;;;;;26.51;32.55;100058.78;5092405;28;20025;-61
2021/05/11 11:07:00;;;;;;;11.02;1.88;;;;;;;26.48;32.34;100044.09;5092031;28;20103;-61
2021/05/11 11:09:30;;;;;;;3.08;1.52;;;;;;;26.48;33.07;100051.97;5092533;28;20021;-61
2021/05/11 11:11:56;;;;;;;2.25;1.63;;;;;;;26.45;32.76;100042.28;5092218;28;20118;-62
2021/05/11 11:14:22;;;;;;;5.75;2.20;;;;;;;26.48;33.16;100044.09;5091731;28;20024;-61
2021/05/11 11:16:51;;;;;;;22.83;2.63;;;;;;;26.52;33.69;100049.63;5091436;28;20366;-62
2021/05/11 11:19:17;;;;;;;5.93;2.00;;;;;;;26.65;33.35;100034.72;5091922;28;20024;-62
2021/05/11 11:21:48;;;;;;;7.28;2.03;;;;;;;26.79;33.25;100036.53;5090787;28;20366;-61
2021/05/11 11:24:36;;;;;;;5.15;1.73;;;;;;;26.84;32.67;100029.19;5091683;28;20073;-60
2021/05/11 11:27:02;;;;;;;3.63;2.00;;;;;;;26.85;32.47;100022.91;5082710;28;20116;-61
2021/05/11 11:29:28;;;;;;;4.28;1.70;;;;;;;26.95;32.60;100027.09;5078331;28;20103;-61
2021/05/11 11:31:55;;;;;;;5.50;1.65;;;;;;;26.97;31.88;100021.59;5077555;28;20024;-61
2021/05/11 11:34:22;;;;;;;3.53;1.67;;;;;;;26.97;32.26;100012.94;5076164;28;20021;-62
2021/05/11 11:37:06;;;;;;;4.43;1.67;;;;;;;27.02;32.27;100011.38;5078237;28;20060;-61
2021/05/11 11:39:36;;;;;;;8.10;1.98;;;;;;;27.09;31.77;100010.84;5077900;28;20024;-61
2021/05/11 11:42:06;;;;;;;4.55;1.70;;;;;;;27.08;32.30;100007.16;5077620;28;20028;-61
2021/05/11 11:44:36;;;;;;;4.78;1.58;;;;;;;27.12;31.59;99995.38;5078092;28;20039;-61
2021/05/11 11:47:10;;;;;;;7.35;1.90;;;;;;;27.22;31.99;100004.53;5077742;28;20364;-61
2021/05/11 11:49:39;;;;;;;2.70;1.60;;;;;;;27.18;32.25;99993.28;5077792;28;20025;-61
2021/05/11 11:52:13;;;;;;;2.88;1.60;;;;;;;27.16;31.99;99977.81;5077900;28;20415;-61
2021/05/11 12:00:14;;;;;;;2.60;1.60;;;;;;;27.30;32.58;99968.84;5077779;28;20021;-61
2021/05/11 12:03:00;;;;;;;5.68;2.10;;;;;;;27.35;31.67;99956.47;5077731;28;20020;-61
2021/05/11 12:05:31;;;;;;;6.68;1.70;;;;;;;27.36;31.10;99949.41;5077742;28;20101;-61
2021/05/11 12:10:37;;;;;;;6.88;1.70;;;;;;;27.51;31.44;99945.41;5077589;28;20025;-61
2021/05/11 12:13:07;;;;;;;4.72;1.40;;;;;;;27.51;32.23;99933.88;5077299;28;20017;-61
2021/05/11 12:15:33;;;;;;;2.53;1.83;;;;;;;27.54;31.72;99921.25;5077055;28;20103;-61
2021/05/11 12:17:59;;;;;;;5.57;1.70;;;;;;;27.63;31.71;99924.63;5076013;28;20419;-61
2021/05/11 12:20:25;;;;;;;5.05;1.80;;;;;;;27.71;31.78;99916.22;5077251;28;20100;-61
2021/05/11 12:23:09;;;;;;;4.20;2.03;;;;;;;27.64;31.56;99925.44;5077371;28;20031;-61
2021/05/11 12:25:36;;;;;;;3.13;1.30;;;;;;;27.66;32.24;99922.78;5077373;28;20024;-61
2021/05/11 12:28:02;;;;;;;6.28;2.03;;;;;;;27.67;31.74;99927.28;5077227;28;20308;-61
2021/05/11 12:30:37;;;;;;;2.70;1.63;;;;;;;27.67;31.78;99915.72;5077009;28;20036;-61
2021/05/11 12:33:04;;;;;;;2.78;1.50;;;;;;;27.76;31.63;99903.84;5076794;28;20415;-61
2021/05/11 12:35:30;;;;;;;5.05;2.08;;;;;;;27.76;32.08;99906.72;5076625;28;20430;-61
2021/05/11 12:38:00;;;;;;;5.80;1.77;;;;;;;27.78;31.64;99912.75;5076187;28;20029;-61
2021/05/11 12:40:40;;;;;;;3.78;1.60;;;;;;;27.77;31.91;99899.66;5076697;28;20107;-61
2021/05/11 12:43:06;;;;;;;7.07;1.55;;;;;;;27.74;32.06;99877.63;5076935;28;20412;-61
2021/05/11 12:45:36;;;;;;;4.60;1.63;;;;;;;27.73;31.70;99893.38;5076673;28;20025;-61
2021/05/11 12:48:04;;;;;;;3.13;1.80;;;;;;;27.76;31.11;99879.97;5076382;28;20021;-61
2021/05/11 12:50:34;;;;;;;4.00;1.90;;;;;;;27.83;31.72;99880.16;5076612;28;20024;-61
2021/05/11 12:53:54;;;;;;;3.05;1.52;;;;;;;27.89;31.64;99880.13;5076554;28;20012;-61
2021/05/11 12:56:33;;;;;;;4.23;1.53;;;;;;;27.87;32.26;99854.66;5077034;28;20032;-61
2021/05/11 12:59:10;;;;;;;7.60;1.35;;;;;;;27.88;31.93;99858.34;5076302;28;20052;-61
2021/05/11 13:21:15;;;;;;;3.13;1.60;;;;;;;28.09;30.94;99824.06;5057696;28;20158;-62
2021/05/11 13:26:29;;;;;;;3.85;1.60;;;;;;;28.18;30.39;99823.69;5059526;28;20094;-61
2021/05/11 13:28:59;;;;;;;6.20;1.50;;;;;;;28.20;31.41;99823.94;5063707;28;20408;-63
2021/05/11 13:34:10;;;;;;;5.60;1.55;;;;;;;28.26;31.54;99825.50;5063899;28;20025;-63
2021/05/11 13:36:42;;;;;;;3.05;1.60;;;;;;;28.30;31.16;99819.44;5059687;28;20368;-63
2021/05/11 13:39:11;;;;;;;8.75;1.92;;;;;;;28.32;31.34;99828.34;5063408;28;20316;-63
2021/05/11 13:41:37;;;;;;;3.65;1.45;;;;;;;28.26;31.21;99808.16;5060336;28;20067;-64
2021/05/11 13:44:04;;;;;;;4.65;1.85;;;;;;;28.24;31.16;99799.25;5062662;28;20052;-64
2021/05/11 13:46:29;;;;;;;3.40;1.75;;;;;;;28.35;30.75;99814.91;5040569;28;20408;-63
2021/05/11 13:48:55;;;;;;;31.27;3.15;;;;;;;28.38;30.12;99811.72;5043011;28;20052;-63
2021/05/11 13:51:20;;;;;;;4.20;1.67;;;;;;;28.33;29.73;99809.66;5039883;28;20306;-63
2021/05/11 13:53:51;;;;;;;4.88;1.63;;;;;;;28.36;30.75;99808.59;5039047;28;20022;-63
2021/05/11 14:04:10;;;;;;;4.72;1.42;;;;;;;28.35;30.90;99797.56;5056445;28;20036;-63
2021/05/11 14:06:36;;;;;;;2.80;1.73;;;;;;;28.39;30.56;99786.50;5065365;28;20016;-63
2021/05/11 14:09:02;;;;;;;3.03;1.58;;;;;;;28.38;30.42;99779.94;5065952;28;20070;-63
2021/05/11 14:11:28;;;;;;;14.05;2.03;;;;;;;28.47;29.61;99787.44;5063294;28;20029;-63
2021/05/11 14:13:53;;;;;;;7.75;1.85;;;;;;;28.42;30.16;99786.19;5067825;28;20158;-63
2021/05/11 14:16:19;;;;;;;5.97;1.88;;;;;;;28.39;30.69;99784.38;5062037;28;20073;-63
2021/05/11 14:18:44;;;;;;;6.72;1.70;;;;;;;28.39;30.69;99781.50;5067109;28;20039;-63
2021/05/11 14:21:09;;;;;;;8.45;1.73;;;;;;;28.38;30.95;99768.38;5063975;28;20024;-63
2021/05/11 14:23:35;;;;;;;3.60;1.50;;;;;;;28.37;31.36;99755.25;5064780;28;20027;-63
2021/05/11 14:26:01;;;;;;;2.83;1.55;;;;;;;28.40;32.30;99762.81;5070191;28;20266;-62
2021/05/11 14:28:26;;;;;;;3.72;1.55;;;;;;;28.48;30.71;99758.00;5064936;28;20021;-63
2021/05/11 14:30:52;;;;;;;4.70;1.73;;;;;;;28.51;29.93;99759.03;5070267;28;20086;-62
2021/05/11 14:33:17;;;;;;;3.10;1.40;;;;;;;28.53;29.82;99750.59;5066182;28;20316;-63
2021/05/11 14:35:43;;;;;;;9.10;1.70;;;;;;;28.47;30.34;99749.88;5064510;28;20025;-63
2021/05/11 14:38:08;;;;;;;4.35;1.63;;;;;;;28.44;31.16;99745.97;5039579;28;20280;-62
2021/05/11 14:40:34;;;;;;;3.72;1.63;;;;;;;28.45;31.38;99750.41;5044899;28;20438;-63
2021/05/11 14:42:59;;;;;;;4.00;1.70;;;;;;;28.46;31.09;99734.63;5037639;28;20022;-63
2021/05/11 14:45:26;;;;;;;7.30;1.52;;;;;;;28.48;30.77;99736.97;5038535;28;20025;-62
2021/05/11 14:47:52;;;;;;;2.85;1.50;;;;;;;28.51;30.35;99747.47;5036964;28;20063;-62
2021/05/11 14:50:19;;;;;;;3.70;1.70;;;;;;;28.50;30.66;99734.34;5035562;28;20026;-63
2021/05/11 14:52:45;;;;;;;5.18;1.80;;;;;;;28.50;30.61;99738.03;5040576;28;20031;-63
2021/05/11 14:55:14;;;;;;;4.95;1.77;;;;;;;28.49;30.10;99745.13;5039588;28;20013;-63
2021/05/11 14:57:40;;;;;;;3.55;1.60;;;;;;;28.46;30.89;99743.31;5042258;28;20023;-63
2021/05/11 15:00:06;;;;;;;7.22;1.95;;;;;;;28.44;31.14;99727.84;5038439;28;20026;-63
2021/05/11 15:02:33;;;;;;;6.70;1.55;;;;;;;28.44;30.16;99722.84;5037105;28;20025;-63
2021/05/11 15:04:59;;;;;;;3.33;1.42;;;;;;;28.43;30.95;99727.06;5052802;28;20013;-63
2021/05/11 15:07:24;;;;;;;3.35;2.05;;;;;;;28.43;30.61;99729.94;5051204;28;20094;-63
2021/05/11 15:09:49;;;;;;;3.70;1.77;;;;;;;28.47;30.16;99723.84;5054096;28;20049;-67
2021/05/11 15:12:15;;;;;;;4.60;1.67;;;;;;;28.40;30.59;99725.25;5044429;28;20056;-60
2021/05/11 15:14:40;;;;;;;3.28;1.48;;;;;;;28.43;31.35;99718.38;5062497;28;20308;-61
2021/05/11 15:19:52;;;;;;;3.63;1.55;;;;;;;28.44;31.11;99707.59;5059302;28;20032;-62
2021/05/11 15:22:18;;;;;;;6.72;1.75;;;;;;;28.45;30.74;99709.94;5063774;28;20098;-62
2021/05/11 15:24:43;;;;;;;3.78;1.88;;;;;;;28.40;31.00;99702.13;5066043;28;20017;-62
2021/05/11 15:27:09;;;;;;;3.65;1.30;;;;;;;28.36;31.51;99704.53;5069721;28;20016;-62
2021/05/11 15:29:37;;;;;;;4.55;1.42;;;;;;;28.37;30.71;99705.34;5069345;28;20020;-63
2021/05/11 15:32:39;;;;;;;5.35;1.80;;;;;;;28.36;30.66;99695.09;5068372;28;20036;-62
2021/05/11 15:35:13;;;;;;;3.13;1.60;;;;;;;28.32;30.52;99706.97;5066101;28;20017;-62
2021/05/11 15:37:39;;;;;;;3.53;1.60;;;;;;;28.31;30.89;99703.28;5071666;28;20024;-62
2021/05/11 15:40:11;;;;;;;3.10;1.42;;;;;;;28.28;30.73;99692.03;5066519;28;20432;-62
2021/05/11 15:42:36;;;;;;;4.75;1.50;;;;;;;28.30;30.99;99695.16;5066419;28;20430;-62
2021/05/11 15:45:03;;;;;;;5.07;1.55;;;;;;;28.30;31.11;99698.84;5065399;28;20017;-62
2021/05/11 15:47:29;;;;;;;2.72;1.90;;;;;;;28.29;30.87;99691.50;5063875;28;20033;-62
2021/05/11 15:49:54;;;;;;;2.72;1.90;;;;;;;28.26;31.97;99686.03;5049921;28;20037;-62
2021/05/11 15:52:20;;;;;;;8.68;1.60;;;;;;;28.27;31.31;99682.59;5044558;28;20389;-62